Terminal Aerodrome Forecast
Issued by NWS

Home | Current Version | Previous Version | Text Only | Print | Product List | Glossary Off
Versions: 1 2 3 4 5 6 7 8 9 10 11 12 13 14

000
FTUS43 KOAX 310520
TAFCDR
TAF
KCDR 310520Z 3106/0106 16008KT P6SM SCT200
     FM311400 30012KT P6SM BKN150
     FM312200 06006KT P6SM VCTS BKN070CB=

USA.gov is the U.S. government's official web portal to all federal, state and local government web resources and services.